sensor_id;sensor_type;location;lat;lon;timestamp;temperature;humidity
63313;DHT22;49442;45.640;13.812;2023-04-03T00:00:25;11.90;97.50
63313;DHT22;49442;45.640;13.812;2023-04-03T00:02:50;11.80;97.20
63313;DHT22;49442;45.640;13.812;2023-04-03T00:05:16;11.80;97.20
63313;DHT22;49442;45.640;13.812;2023-04-03T00:07:42;11.80;97.40
63313;DHT22;49442;45.640;13.812;2023-04-03T00:10:08;11.70;97.30
63313;DHT22;49442;45.640;13.812;2023-04-03T00:12:34;11.70;97.30
63313;DHT22;49442;45.640;13.812;2023-04-03T00:14:59;11.70;97.30
63313;DHT22;49442;45.640;13.812;2023-04-03T00:17:25;11.70;97.40
63313;DHT22;49442;45.640;13.812;2023-04-03T00:19:51;11.60;97.30
63313;DHT22;49442;45.640;13.812;2023-04-03T00:22:16;11.60;97.00
63313;DHT22;49442;45.640;13.812;2023-04-03T00:24:42;11.60;96.90
63313;DHT22;49442;45.640;13.812;2023-04-03T00:27:08;11.60;96.80
63313;DHT22;49442;45.640;13.812;2023-04-03T00:29:33;11.60;96.80
63313;DHT22;49442;45.640;13.812;2023-04-03T00:32:00;11.50;96.80
63313;DHT22;49442;45.640;13.812;2023-04-03T00:34:25;11.40;96.90
63313;DHT22;49442;45.640;13.812;2023-04-03T00:36:51;11.40;97.10
63313;DHT22;49442;45.640;13.812;2023-04-03T00:39:17;11.40;96.90
63313;DHT22;49442;45.640;13.812;2023-04-03T00:41:42;11.30;97.20
63313;DHT22;49442;45.640;13.812;2023-04-03T00:47:11;11.20;97.10
63313;DHT22;49442;45.640;13.812;2023-04-03T00:49:39;11.20;97.10
63313;DHT22;49442;45.640;13.812;2023-04-03T00:52:11;11.10;97.00
63313;DHT22;49442;45.640;13.812;2023-04-03T00:54:38;11.10;96.70
63313;DHT22;49442;45.640;13.812;2023-04-03T00:57:06;11.00;97.00
63313;DHT22;49442;45.640;13.812;2023-04-03T00:59:36;11.00;97.30
63313;DHT22;49442;45.640;13.812;2023-04-03T01:02:05;11.00;97.00
63313;DHT22;49442;45.640;13.812;2023-04-03T01:04:36;10.90;97.10
63313;DHT22;49442;45.640;13.812;2023-04-03T01:09:33;10.90;97.00
63313;DHT22;49442;45.640;13.812;2023-04-03T01:12:20;10.80;97.00
63313;DHT22;49442;45.640;13.812;2023-04-03T01:14:48;10.80;97.00
63313;DHT22;49442;45.640;13.812;2023-04-03T01:17:34;10.80;97.10
63313;DHT22;49442;45.640;13.812;2023-04-03T01:20:07;10.80;97.10
63313;DHT22;49442;45.640;13.812;2023-04-03T01:25:40;10.70;97.00
63313;DHT22;49442;45.640;13.812;2023-04-03T01:28:08;10.70;97.20
63313;DHT22;49442;45.640;13.812;2023-04-03T01:33:11;10.60;97.40
63313;DHT22;49442;45.640;13.812;2023-04-03T01:35:37;10.60;97.40
63313;DHT22;49442;45.640;13.812;2023-04-03T01:38:03;10.50;97.50
63313;DHT22;49442;45.640;13.812;2023-04-03T01:40:29;10.50;97.30
63313;DHT22;49442;45.640;13.812;2023-04-03T01:42:55;10.50;97.40
63313;DHT22;49442;45.640;13.812;2023-04-03T01:45:20;10.40;97.60
63313;DHT22;49442;45.640;13.812;2023-04-03T01:47:46;10.40;97.60
63313;DHT22;49442;45.640;13.812;2023-04-03T01:50:12;10.50;97.50
63313;DHT22;49442;45.640;13.812;2023-04-03T01:52:37;10.40;97.30
63313;DHT22;49442;45.640;13.812;2023-04-03T01:55:03;10.50;97.30
63313;DHT22;49442;45.640;13.812;2023-04-03T01:57:29;10.40;97.30
63313;DHT22;49442;45.640;13.812;2023-04-03T01:59:55;10.40;96.80
63313;DHT22;49442;45.640;13.812;2023-04-03T02:02:21;10.40;97.00
63313;DHT22;49442;45.640;13.812;2023-04-03T02:04:46;10.40;96.60
63313;DHT22;49442;45.640;13.812;2023-04-03T02:07:12;10.40;96.60
63313;DHT22;49442;45.640;13.812;2023-04-03T02:09:37;10.40;96.30
63313;DHT22;49442;45.640;13.812;2023-04-03T02:12:03;10.40;96.30
63313;DHT22;49442;45.640;13.812;2023-04-03T02:14:29;10.40;96.20
63313;DHT22;49442;45.640;13.812;2023-04-03T02:16:55;10.40;95.90
63313;DHT22;49442;45.640;13.812;2023-04-03T02:19:20;10.40;96.10
63313;DHT22;49442;45.640;13.812;2023-04-03T02:21:46;10.40;95.90
63313;DHT22;49442;45.640;13.812;2023-04-03T02:24:12;10.30;95.90
63313;DHT22;49442;45.640;13.812;2023-04-03T02:26:37;10.30;95.90
63313;DHT22;49442;45.640;13.812;2023-04-03T02:29:03;10.30;95.90
63313;DHT22;49442;45.640;13.812;2023-04-03T02:31:28;10.20;96.00
63313;DHT22;49442;45.640;13.812;2023-04-03T02:33:54;10.20;96.00
63313;DHT22;49442;45.640;13.812;2023-04-03T02:36:20;10.10;95.90
63313;DHT22;49442;45.640;13.812;2023-04-03T02:38:45;10.10;95.60
63313;DHT22;49442;45.640;13.812;2023-04-03T02:41:12;10.10;95.80
63313;DHT22;49442;45.640;13.812;2023-04-03T02:43:38;10.00;95.50
63313;DHT22;49442;45.640;13.812;2023-04-03T02:46:04;10.00;95.60
63313;DHT22;49442;45.640;13.812;2023-04-03T02:48:31;10.00;95.70
63313;DHT22;49442;45.640;13.812;2023-04-03T02:50:56;9.90;95.50
63313;DHT22;49442;45.640;13.812;2023-04-03T02:53:22;9.90;95.30
63313;DHT22;49442;45.640;13.812;2023-04-03T02:55:48;9.90;95.30
63313;DHT22;49442;45.640;13.812;2023-04-03T02:58:14;9.90;95.30
63313;DHT22;49442;45.640;13.812;2023-04-03T03:00:40;9.80;95.20
63313;DHT22;49442;45.640;13.812;2023-04-03T03:03:06;9.80;95.30
63313;DHT22;49442;45.640;13.812;2023-04-03T03:05:32;9.80;95.40
63313;DHT22;49442;45.640;13.812;2023-04-03T03:07:58;9.70;95.10
63313;DHT22;49442;45.640;13.812;2023-04-03T03:10:23;9.60;95.30
63313;DHT22;49442;45.640;13.812;2023-04-03T03:12:49;9.60;95.10
63313;DHT22;49442;45.640;13.812;2023-04-03T03:15:15;9.50;94.70
63313;DHT22;49442;45.640;13.812;2023-04-03T03:17:42;9.50;94.90
63313;DHT22;49442;45.640;13.812;2023-04-03T03:20:09;9.40;94.80
63313;DHT22;49442;45.640;13.812;2023-04-03T03:22:35;9.40;94.70
63313;DHT22;49442;45.640;13.812;2023-04-03T03:25:01;9.40;94.60
63313;DHT22;49442;45.640;13.812;2023-04-03T03:27:28;9.30;94.70
63313;DHT22;49442;45.640;13.812;2023-04-03T03:29:53;9.30;94.30
63313;DHT22;49442;45.640;13.812;2023-04-03T03:32:19;9.30;94.60
63313;DHT22;49442;45.640;13.812;2023-04-03T03:34:45;9.20;94.20
63313;DHT22;49442;45.640;13.812;2023-04-03T03:37:11;9.20;94.50
63313;DHT22;49442;45.640;13.812;2023-04-03T03:39:36;9.20;94.30
63313;DHT22;49442;45.640;13.812;2023-04-03T03:42:02;9.10;94.00
63313;DHT22;49442;45.640;13.812;2023-04-03T03:44:28;9.10;94.10
63313;DHT22;49442;45.640;13.812;2023-04-03T03:46:55;9.10;94.00
63313;DHT22;49442;45.640;13.812;2023-04-03T03:49:21;9.00;94.00
63313;DHT22;49442;45.640;13.812;2023-04-03T03:51:47;9.10;93.80
63313;DHT22;49442;45.640;13.812;2023-04-03T03:54:13;9.00;93.70
63313;DHT22;49442;45.640;13.812;2023-04-03T03:56:39;9.00;93.70
63313;DHT22;49442;45.640;13.812;2023-04-03T03:59:04;8.90;94.00
63313;DHT22;49442;45.640;13.812;2023-04-03T04:01:31;8.90;93.70
63313;DHT22;49442;45.640;13.812;2023-04-03T04:03:57;8.80;93.70
63313;DHT22;49442;45.640;13.812;2023-04-03T04:06:23;8.80;93.50
63313;DHT22;49442;45.640;13.812;2023-04-03T04:08:49;8.80;93.60
63313;DHT22;49442;45.640;13.812;2023-04-03T04:11:15;8.70;93.60
63313;DHT22;49442;45.640;13.812;2023-04-03T04:13:41;8.70;93.70
63313;DHT22;49442;45.640;13.812;2023-04-03T04:16:07;8.70;93.70
63313;DHT22;49442;45.640;13.812;2023-04-03T04:18:33;8.60;93.40
63313;DHT22;49442;45.640;13.812;2023-04-03T04:20:59;8.60;93.40
63313;DHT22;49442;45.640;13.812;2023-04-03T04:23:25;8.60;93.20
63313;DHT22;49442;45.640;13.812;2023-04-03T04:25:51;8.60;93.00
63313;DHT22;49442;45.640;13.812;2023-04-03T04:28:17;8.60;93.00
63313;DHT22;49442;45.640;13.812;2023-04-03T04:30:43;8.60;92.70
63313;DHT22;49442;45.640;13.812;2023-04-03T04:33:09;8.50;92.80
63313;DHT22;49442;45.640;13.812;2023-04-03T04:35:35;8.50;92.60
63313;DHT22;49442;45.640;13.812;2023-04-03T04:38:01;8.50;92.80
63313;DHT22;49442;45.640;13.812;2023-04-03T04:40:28;8.50;92.80
63313;DHT22;49442;45.640;13.812;2023-04-03T04:42:54;8.50;92.80
63313;DHT22;49442;45.640;13.812;2023-04-03T04:45:19;8.40;92.80
63313;DHT22;49442;45.640;13.812;2023-04-03T04:47:45;8.40;92.60
63313;DHT22;49442;45.640;13.812;2023-04-03T04:50:12;8.30;92.80
63313;DHT22;49442;45.640;13.812;2023-04-03T04:52:38;8.30;92.80
63313;DHT22;49442;45.640;13.812;2023-04-03T04:55:04;8.30;92.50
63313;DHT22;49442;45.640;13.812;2023-04-03T04:57:30;8.30;92.70
63313;DHT22;49442;45.640;13.812;2023-04-03T04:59:57;8.20;92.40
63313;DHT22;49442;45.640;13.812;2023-04-03T05:02:23;8.20;92.40
63313;DHT22;49442;45.640;13.812;2023-04-03T05:04:48;8.10;92.40
63313;DHT22;49442;45.640;13.812;2023-04-03T05:07:15;8.10;92.50
63313;DHT22;49442;45.640;13.812;2023-04-03T05:09:41;8.00;92.50
63313;DHT22;49442;45.640;13.812;2023-04-03T05:12:07;8.00;92.50
63313;DHT22;49442;45.640;13.812;2023-04-03T05:14:33;8.00;92.30
63313;DHT22;49442;45.640;13.812;2023-04-03T05:16:59;8.00;92.10
63313;DHT22;49442;45.640;13.812;2023-04-03T05:19:24;8.00;92.10
63313;DHT22;49442;45.640;13.812;2023-04-03T05:21:50;8.00;92.10
63313;DHT22;49442;45.640;13.812;2023-04-03T05:24:16;8.00;92.00
63313;DHT22;49442;45.640;13.812;2023-04-03T05:26:43;7.90;92.00
63313;DHT22;49442;45.640;13.812;2023-04-03T05:29:09;8.00;91.60
63313;DHT22;49442;45.640;13.812;2023-04-03T05:31:35;8.00;91.90
63313;DHT22;49442;45.640;13.812;2023-04-03T05:34:01;7.90;91.80
63313;DHT22;49442;45.640;13.812;2023-04-03T05:36:27;7.90;91.70
63313;DHT22;49442;45.640;13.812;2023-04-03T05:38:53;7.90;91.70
63313;DHT22;49442;45.640;13.812;2023-04-03T05:41:19;8.00;91.50
63313;DHT22;49442;45.640;13.812;2023-04-03T05:43:46;8.00;91.30
63313;DHT22;49442;45.640;13.812;2023-04-03T05:46:13;8.00;91.50
63313;DHT22;49442;45.640;13.812;2023-04-03T05:48:40;7.90;91.60
63313;DHT22;49442;45.640;13.812;2023-04-03T05:51:07;8.00;91.20
63313;DHT22;49442;45.640;13.812;2023-04-03T05:53:35;8.00;91.10
63313;DHT22;49442;45.640;13.812;2023-04-03T05:56:05;8.00;91.20
63313;DHT22;49442;45.640;13.812;2023-04-03T05:58:31;8.00;91.10
63313;DHT22;49442;45.640;13.812;2023-04-03T06:00:56;8.00;91.00
63313;DHT22;49442;45.640;13.812;2023-04-03T06:03:22;8.10;90.60
63313;DHT22;49442;45.640;13.812;2023-04-03T06:05:48;8.10;90.80
63313;DHT22;49442;45.640;13.812;2023-04-03T06:08:17;8.10;90.70
63313;DHT22;49442;45.640;13.812;2023-04-03T06:10:47;8.20;90.30
63313;DHT22;49442;45.640;13.812;2023-04-03T06:13:13;8.20;90.30
63313;DHT22;49442;45.640;13.812;2023-04-03T06:15:39;8.30;90.50
63313;DHT22;49442;45.640;13.812;2023-04-03T06:18:06;8.30;90.10
63313;DHT22;49442;45.640;13.812;2023-04-03T06:20:32;8.30;89.60
63313;DHT22;49442;45.640;13.812;2023-04-03T06:22:58;8.40;89.70
63313;DHT22;49442;45.640;13.812;2023-04-03T06:25:23;8.50;89.00
63313;DHT22;49442;45.640;13.812;2023-04-03T06:27:55;8.50;89.00
63313;DHT22;49442;45.640;13.812;2023-04-03T06:30:24;8.50;88.90
63313;DHT22;49442;45.640;13.812;2023-04-03T06:32:50;8.60;89.10
63313;DHT22;49442;45.640;13.812;2023-04-03T06:35:15;8.60;88.50
63313;DHT22;49442;45.640;13.812;2023-04-03T06:37:41;8.70;87.90
63313;DHT22;49442;45.640;13.812;2023-04-03T06:40:11;8.70;88.00
63313;DHT22;49442;45.640;13.812;2023-04-03T06:42:40;8.70;88.90
63313;DHT22;49442;45.640;13.812;2023-04-03T06:45:07;8.80;86.90
63313;DHT22;49442;45.640;13.812;2023-04-03T06:47:33;8.80;87.70
63313;DHT22;49442;45.640;13.812;2023-04-03T06:49:58;8.90;87.70
63313;DHT22;49442;45.640;13.812;2023-04-03T06:52:24;8.90;86.50
63313;DHT22;49442;45.640;13.812;2023-04-03T06:54:49;9.00;87.20
63313;DHT22;49442;45.640;13.812;2023-04-03T06:57:17;9.00;87.00
63313;DHT22;49442;45.640;13.812;2023-04-03T06:59:42;9.00;85.90
63313;DHT22;49442;45.640;13.812;2023-04-03T07:02:10;9.10;86.40
63313;DHT22;49442;45.640;13.812;2023-04-03T07:04:37;9.30;85.60
63313;DHT22;49442;45.640;13.812;2023-04-03T07:07:02;9.30;85.00
63313;DHT22;49442;45.640;13.812;2023-04-03T07:09:28;9.30;84.40
63313;DHT22;49442;45.640;13.812;2023-04-03T07:11:53;9.30;84.70
63313;DHT22;49442;45.640;13.812;2023-04-03T07:14:19;9.40;83.30
63313;DHT22;49442;45.640;13.812;2023-04-03T07:16:46;9.40;84.20
63313;DHT22;49442;45.640;13.812;2023-04-03T07:19:12;9.40;83.30
63313;DHT22;49442;45.640;13.812;2023-04-03T07:21:37;9.50;82.40
63313;DHT22;49442;45.640;13.812;2023-04-03T07:24:03;9.50;83.90
63313;DHT22;49442;45.640;13.812;2023-04-03T07:26:30;9.60;83.60
63313;DHT22;49442;45.640;13.812;2023-04-03T07:28:55;9.60;82.10
63313;DHT22;49442;45.640;13.812;2023-04-03T07:31:21;9.70;81.40
63313;DHT22;49442;45.640;13.812;2023-04-03T07:33:47;9.80;83.10
63313;DHT22;49442;45.640;13.812;2023-04-03T07:36:16;9.80;81.30
63313;DHT22;49442;45.640;13.812;2023-04-03T07:38:42;9.80;81.10
63313;DHT22;49442;45.640;13.812;2023-04-03T07:41:14;9.90;80.50
63313;DHT22;49442;45.640;13.812;2023-04-03T07:43:41;9.90;81.20
63313;DHT22;49442;45.640;13.812;2023-04-03T07:46:07;10.00;79.40
63313;DHT22;49442;45.640;13.812;2023-04-03T07:48:33;10.00;80.60
63313;DHT22;49442;45.640;13.812;2023-04-03T07:51:01;10.10;80.40
63313;DHT22;49442;45.640;13.812;2023-04-03T07:53:27;10.10;80.60
63313;DHT22;49442;45.640;13.812;2023-04-03T07:55:53;10.20;80.20
63313;DHT22;49442;45.640;13.812;2023-04-03T07:58:21;10.30;80.30
63313;DHT22;49442;45.640;13.812;2023-04-03T08:00:48;10.30;79.00
63313;DHT22;49442;45.640;13.812;2023-04-03T08:03:14;10.40;78.20
63313;DHT22;49442;45.640;13.812;2023-04-03T08:05:43;10.40;79.00
63313;DHT22;49442;45.640;13.812;2023-04-03T08:08:11;10.50;79.80
63313;DHT22;49442;45.640;13.812;2023-04-03T08:10:37;10.60;80.10
63313;DHT22;49442;45.640;13.812;2023-04-03T08:13:04;10.70;80.20
63313;DHT22;49442;45.640;13.812;2023-04-03T08:15:30;10.80;78.60
63313;DHT22;49442;45.640;13.812;2023-04-03T08:17:57;11.00;76.70
63313;DHT22;49442;45.640;13.812;2023-04-03T08:20:23;11.00;78.40
63313;DHT22;49442;45.640;13.812;2023-04-03T08:22:49;11.10;77.00
63313;DHT22;49442;45.640;13.812;2023-04-03T08:25:15;11.10;78.30
63313;DHT22;49442;45.640;13.812;2023-04-03T08:27:41;11.30;76.90
63313;DHT22;49442;45.640;13.812;2023-04-03T08:30:07;11.40;76.10
63313;DHT22;49442;45.640;13.812;2023-04-03T08:32:36;11.40;77.30
63313;DHT22;49442;45.640;13.812;2023-04-03T08:35:03;11.40;75.90
63313;DHT22;49442;45.640;13.812;2023-04-03T08:37:29;11.20;76.60
63313;DHT22;49442;45.640;13.812;2023-04-03T08:39:54;11.30;75.40
63313;DHT22;49442;45.640;13.812;2023-04-03T08:45:43;11.70;77.00
63313;DHT22;49442;45.640;13.812;2023-04-03T08:48:20;11.90;75.10
63313;DHT22;49442;45.640;13.812;2023-04-03T08:50:53;15.30;69.20
63313;DHT22;49442;45.640;13.812;2023-04-03T08:53:27;16.70;64.70
63313;DHT22;49442;45.640;13.812;2023-04-03T08:55:55;16.60;61.70
63313;DHT22;49442;45.640;13.812;2023-04-03T08:58:30;16.70;61.00
63313;DHT22;49442;45.640;13.812;2023-04-03T09:01:07;16.00;61.30
63313;DHT22;49442;45.640;13.812;2023-04-03T09:03:40;15.70;63.10
63313;DHT22;49442;45.640;13.812;2023-04-03T09:06:12;15.40;61.20
63313;DHT22;49442;45.640;13.812;2023-04-03T09:11:43;14.40;65.60
63313;DHT22;49442;45.640;13.812;2023-04-03T09:14:39;14.00;65.80
63313;DHT22;49442;45.640;13.812;2023-04-03T09:22:51;13.80;66.60
63313;DHT22;49442;45.640;13.812;2023-04-03T09:25:27;13.60;66.90
63313;DHT22;49442;45.640;13.812;2023-04-03T09:27:55;13.40;67.80
63313;DHT22;49442;45.640;13.812;2023-04-03T09:30:23;13.40;68.50
63313;DHT22;49442;45.640;13.812;2023-04-03T09:32:52;13.30;68.40
63313;DHT22;49442;45.640;13.812;2023-04-03T09:35:29;13.10;67.80
63313;DHT22;49442;45.640;13.812;2023-04-03T09:38:01;13.00;70.00
63313;DHT22;49442;45.640;13.812;2023-04-03T09:40:36;13.10;68.20
63313;DHT22;49442;45.640;13.812;2023-04-03T09:43:19;13.20;70.30
63313;DHT22;49442;45.640;13.812;2023-04-03T09:45:47;13.30;68.10
63313;DHT22;49442;45.640;13.812;2023-04-03T09:53:39;13.00;65.30
63313;DHT22;49442;45.640;13.812;2023-04-03T09:56:28;13.00;67.20
63313;DHT22;49442;45.640;13.812;2023-04-03T10:01:30;13.10;67.00
63313;DHT22;49442;45.640;13.812;2023-04-03T10:04:15;13.30;67.80
63313;DHT22;49442;45.640;13.812;2023-04-03T10:06:46;13.20;64.30
63313;DHT22;49442;45.640;13.812;2023-04-03T10:09:23;13.20;66.80
63313;DHT22;49442;45.640;13.812;2023-04-03T10:12:08;13.20;65.30
63313;DHT22;49442;45.640;13.812;2023-04-03T10:14:39;13.30;67.30
63313;DHT22;49442;45.640;13.812;2023-04-03T10:17:18;13.40;67.00
63313;DHT22;49442;45.640;13.812;2023-04-03T10:22:37;13.30;65.90
63313;DHT22;49442;45.640;13.812;2023-04-03T10:25:48;13.50;67.00
63313;DHT22;49442;45.640;13.812;2023-04-03T10:28:12;13.60;65.40
63313;DHT22;49442;45.640;13.812;2023-04-03T10:30:56;13.50;65.20
63313;DHT22;49442;45.640;13.812;2023-04-03T10:47:48;13.10;63.20
63313;DHT22;49442;45.640;13.812;2023-04-03T10:57:53;13.20;63.90
63313;DHT22;49442;45.640;13.812;2023-04-03T11:00:26;13.40;63.30
63313;DHT22;49442;45.640;13.812;2023-04-03T11:03:01;13.50;62.50
63313;DHT22;49442;45.640;13.812;2023-04-03T11:05:39;13.30;62.00
63313;DHT22;49442;45.640;13.812;2023-04-03T11:08:28;13.30;63.60
63313;DHT22;49442;45.640;13.812;2023-04-03T11:11:06;13.30;61.90
63313;DHT22;49442;45.640;13.812;2023-04-03T11:13:46;13.40;63.10
63313;DHT22;49442;45.640;13.812;2023-04-03T11:16:20;13.50;64.40
63313;DHT22;49442;45.640;13.812;2023-04-03T11:21:41;13.90;64.70
63313;DHT22;49442;45.640;13.812;2023-04-03T11:24:17;14.00;63.20
63313;DHT22;49442;45.640;13.812;2023-04-03T11:26:47;13.80;65.20
63313;DHT22;49442;45.640;13.812;2023-04-03T11:29:19;14.00;63.90
63313;DHT22;49442;45.640;13.812;2023-04-03T11:34:51;14.00;61.90
63313;DHT22;49442;45.640;13.812;2023-04-03T11:37:31;14.00;61.70
63313;DHT22;49442;45.640;13.812;2023-04-03T11:45:29;13.60;59.00
63313;DHT22;49442;45.640;13.812;2023-04-03T11:48:09;13.70;61.70
63313;DHT22;49442;45.640;13.812;2023-04-03T11:50:51;13.90;62.20
63313;DHT22;49442;45.640;13.812;2023-04-03T11:58:34;14.00;61.70
63313;DHT22;49442;45.640;13.812;2023-04-03T12:01:10;14.00;60.80
63313;DHT22;49442;45.640;13.812;2023-04-03T12:16:41;14.20;60.20
63313;DHT22;49442;45.640;13.812;2023-04-03T12:29:37;14.40;58.60
63313;DHT22;49442;45.640;13.812;2023-04-03T12:37:54;14.70;60.10
63313;DHT22;49442;45.640;13.812;2023-04-03T12:43:42;15.00;58.20
63313;DHT22;49442;45.640;13.812;2023-04-03T12:46:14;15.00;58.50
63313;DHT22;49442;45.640;13.812;2023-04-03T12:51:20;14.80;56.50
63313;DHT22;49442;45.640;13.812;2023-04-03T12:53:49;14.80;56.90
63313;DHT22;49442;45.640;13.812;2023-04-03T12:58:53;14.70;57.20
63313;DHT22;49442;45.640;13.812;2023-04-03T13:01:23;15.00;58.10
63313;DHT22;49442;45.640;13.812;2023-04-03T13:03:58;15.00;56.90
63313;DHT22;49442;45.640;13.812;2023-04-03T13:06:43;14.90;56.90
63313;DHT22;49442;45.640;13.812;2023-04-03T13:09:24;14.90;56.80
63313;DHT22;49442;45.640;13.812;2023-04-03T13:12:00;14.70;57.60
63313;DHT22;49442;45.640;13.812;2023-04-03T13:14:28;14.60;58.00
63313;DHT22;49442;45.640;13.812;2023-04-03T13:19:25;14.80;58.10
63313;DHT22;49442;45.640;13.812;2023-04-03T13:22:04;14.80;57.00
63313;DHT22;49442;45.640;13.812;2023-04-03T13:24:33;14.70;57.20
63313;DHT22;49442;45.640;13.812;2023-04-03T13:27:01;14.60;56.90
63313;DHT22;49442;45.640;13.812;2023-04-03T13:29:36;14.60;58.00
63313;DHT22;49442;45.640;13.812;2023-04-03T13:32:03;14.70;58.00
63313;DHT22;49442;45.640;13.812;2023-04-03T13:34:40;14.70;57.50
63313;DHT22;49442;45.640;13.812;2023-04-03T13:37:06;14.70;58.10
63313;DHT22;49442;45.640;13.812;2023-04-03T13:39:38;14.70;57.40
63313;DHT22;49442;45.640;13.812;2023-04-03T13:42:28;14.70;58.20
63313;DHT22;49442;45.640;13.812;2023-04-03T13:45:16;14.60;56.10
63313;DHT22;49442;45.640;13.812;2023-04-03T13:47:43;14.60;58.10
63313;DHT22;49442;45.640;13.812;2023-04-03T13:50:19;14.60;57.80
63313;DHT22;49442;45.640;13.812;2023-04-03T13:52:54;14.70;57.40
63313;DHT22;49442;45.640;13.812;2023-04-03T13:55:34;14.70;58.20
63313;DHT22;49442;45.640;13.812;2023-04-03T13:58:29;14.60;57.40
63313;DHT22;49442;45.640;13.812;2023-04-03T14:01:18;14.50;57.70
63313;DHT22;49442;45.640;13.812;2023-04-03T14:04:16;14.60;57.80
63313;DHT22;49442;45.640;13.812;2023-04-03T14:06:42;14.60;58.30
63313;DHT22;49442;45.640;13.812;2023-04-03T14:09:08;14.40;56.60
63313;DHT22;49442;45.640;13.812;2023-04-03T14:11:34;14.50;58.20
63313;DHT22;49442;45.640;13.812;2023-04-03T14:14:11;14.40;57.20
63313;DHT22;49442;45.640;13.812;2023-04-03T14:16:40;14.40;56.80
63313;DHT22;49442;45.640;13.812;2023-04-03T14:19:07;14.50;57.60
63313;DHT22;49442;45.640;13.812;2023-04-03T14:21:39;14.50;56.40
63313;DHT22;49442;45.640;13.812;2023-04-03T14:24:05;14.60;57.50
63313;DHT22;49442;45.640;13.812;2023-04-03T14:26:31;14.60;58.10
63313;DHT22;49442;45.640;13.812;2023-04-03T14:28:57;14.40;56.60
63313;DHT22;49442;45.640;13.812;2023-04-03T14:31:23;14.30;57.20
63313;DHT22;49442;45.640;13.812;2023-04-03T14:33:49;14.30;57.30
63313;DHT22;49442;45.640;13.812;2023-04-03T14:36:18;14.30;59.80
63313;DHT22;49442;45.640;13.812;2023-04-03T14:38:45;14.40;57.20
63313;DHT22;49442;45.640;13.812;2023-04-03T14:41:16;14.40;58.10
63313;DHT22;49442;45.640;13.812;2023-04-03T14:43:43;14.20;56.90
63313;DHT22;49442;45.640;13.812;2023-04-03T14:46:18;14.20;57.50
63313;DHT22;49442;45.640;13.812;2023-04-03T14:48:45;14.20;57.30
63313;DHT22;49442;45.640;13.812;2023-04-03T14:51:12;14.10;56.50
63313;DHT22;49442;45.640;13.812;2023-04-03T14:53:38;14.00;57.70
63313;DHT22;49442;45.640;13.812;2023-04-03T14:56:24;14.00;58.50
63313;DHT22;49442;45.640;13.812;2023-04-03T14:58:58;14.10;56.80
63313;DHT22;49442;45.640;13.812;2023-04-03T15:01:24;14.10;58.20
63313;DHT22;49442;45.640;13.812;2023-04-03T15:03:50;14.10;57.80
63313;DHT22;49442;45.640;13.812;2023-04-03T15:06:16;13.90;57.40
63313;DHT22;49442;45.640;13.812;2023-04-03T15:08:43;14.00;57.80
63313;DHT22;49442;45.640;13.812;2023-04-03T15:11:10;14.10;57.70
63313;DHT22;49442;45.640;13.812;2023-04-03T15:13:37;13.90;56.70
63313;DHT22;49442;45.640;13.812;2023-04-03T15:16:04;14.40;57.60
63313;DHT22;49442;45.640;13.812;2023-04-03T15:18:35;14.60;56.60
63313;DHT22;49442;45.640;13.812;2023-04-03T15:21:03;14.70;56.40
63313;DHT22;49442;45.640;13.812;2023-04-03T15:23:28;14.40;56.60
63313;DHT22;49442;45.640;13.812;2023-04-03T15:25:56;14.20;56.70
63313;DHT22;49442;45.640;13.812;2023-04-03T15:28:37;14.00;56.00
63313;DHT22;49442;45.640;13.812;2023-04-03T15:31:04;14.00;57.30
63313;DHT22;49442;45.640;13.812;2023-04-03T15:33:31;14.00;56.00
63313;DHT22;49442;45.640;13.812;2023-04-03T15:35:58;13.90;56.90
63313;DHT22;49442;45.640;13.812;2023-04-03T15:38:24;13.70;56.90
63313;DHT22;49442;45.640;13.812;2023-04-03T15:40:49;13.70;58.50
63313;DHT22;49442;45.640;13.812;2023-04-03T15:43:15;13.80;57.70
63313;DHT22;49442;45.640;13.812;2023-04-03T15:45:42;13.70;58.40
63313;DHT22;49442;45.640;13.812;2023-04-03T15:48:08;13.50;57.00
63313;DHT22;49442;45.640;13.812;2023-04-03T15:50:34;13.40;57.10
63313;DHT22;49442;45.640;13.812;2023-04-03T15:53:00;13.20;58.00
63313;DHT22;49442;45.640;13.812;2023-04-03T15:55:29;13.20;59.10
63313;DHT22;49442;45.640;13.812;2023-04-03T15:57:55;13.30;58.50
63313;DHT22;49442;45.640;13.812;2023-04-03T16:00:23;13.20;59.00
63313;DHT22;49442;45.640;13.812;2023-04-03T16:02:52;13.10;59.30
63313;DHT22;49442;45.640;13.812;2023-04-03T16:05:19;12.90;58.90
63313;DHT22;49442;45.640;13.812;2023-04-03T16:07:45;12.90;59.80
63313;DHT22;49442;45.640;13.812;2023-04-03T16:10:13;12.80;59.40
63313;DHT22;49442;45.640;13.812;2023-04-03T16:12:39;12.80;59.70
63313;DHT22;49442;45.640;13.812;2023-04-03T16:15:05;12.60;59.40
63313;DHT22;49442;45.640;13.812;2023-04-03T16:17:32;12.70;59.90
63313;DHT22;49442;45.640;13.812;2023-04-03T16:19:58;12.60;59.90
63313;DHT22;49442;45.640;13.812;2023-04-03T16:22:26;12.40;60.10
63313;DHT22;49442;45.640;13.812;2023-04-03T16:24:52;12.40;60.70
63313;DHT22;49442;45.640;13.812;2023-04-03T16:27:18;12.30;60.60
63313;DHT22;49442;45.640;13.812;2023-04-03T16:29:44;12.10;60.50
63313;DHT22;49442;45.640;13.812;2023-04-03T16:32:09;12.00;60.30
63313;DHT22;49442;45.640;13.812;2023-04-03T16:34:36;12.10;62.20
63313;DHT22;49442;45.640;13.812;2023-04-03T16:37:02;12.10;62.00
63313;DHT22;49442;45.640;13.812;2023-04-03T16:39:28;12.00;61.20
63313;DHT22;49442;45.640;13.812;2023-04-03T16:41:53;11.90;61.10
63313;DHT22;49442;45.640;13.812;2023-04-03T16:44:19;11.80;61.20
63313;DHT22;49442;45.640;13.812;2023-04-03T16:46:45;11.70;62.10
63313;DHT22;49442;45.640;13.812;2023-04-03T16:49:10;11.70;61.70
63313;DHT22;49442;45.640;13.812;2023-04-03T16:51:36;11.70;63.40
63313;DHT22;49442;45.640;13.812;2023-04-03T16:54:01;11.60;62.00
63313;DHT22;49442;45.640;13.812;2023-04-03T16:56:27;11.40;61.80
63313;DHT22;49442;45.640;13.812;2023-04-03T16:58:53;11.40;62.60
63313;DHT22;49442;45.640;13.812;2023-04-03T17:01:20;11.40;63.00
63313;DHT22;49442;45.640;13.812;2023-04-03T17:03:46;11.30;62.60
63313;DHT22;49442;45.640;13.812;2023-04-03T17:06:16;11.30;63.00
63313;DHT22;49442;45.640;13.812;2023-04-03T17:08:43;11.20;62.70
63313;DHT22;49442;45.640;13.812;2023-04-03T17:11:10;11.20;63.60
63313;DHT22;49442;45.640;13.812;2023-04-03T17:13:35;11.10;63.80
63313;DHT22;49442;45.640;13.812;2023-04-03T17:16:04;11.00;63.90
63313;DHT22;49442;45.640;13.812;2023-04-03T17:18:31;11.00;63.60
63313;DHT22;49442;45.640;13.812;2023-04-03T17:20:57;10.80;63.40